| time (UTC) | temp F | wind direction | speed MPH | gust MPH | rain 1hr in | rain 24hr in | rain mn in | humidity % | barometer mb |
| 20260902041504 | 64 | 0 | 2.0 | 0.0 | 0.00 | 0.00 | 0.00 | 93 | 1022.0 |
| 20260902010003 | 63 | 180 | 2.0 | 0.0 | 0.00 | 0.00 | 0.00 | 100 | 1022.0 |
| 20260901230003 | 64 | 100 | 2.0 | 0.0 | 0.00 | 0.00 | 0.00 | 93 | 1023.0 |
| 20260901224503 | 64 | 100 | 2.0 | 0.0 | 0.00 | 0.00 | 0.00 | 93 | 1023.0 |
| 20260901223004 | 64 | 0 | 1.0 | 0.0 | 0.00 | 0.00 | 0.00 | 93 | 1022.0 |
| 20260901221503 | 64 | 0 | 1.0 | 0.0 | 0.00 | 0.00 | 0.00 | 93 | 1022.0 |
| 20260901214503 | 66 | 0 | 1.0 | 0.0 | 0.00 | 0.00 | 0.00 | 88 | 1022.0 |
| 20260901213003 | 66 | 90 | 5.0 | 0.0 | 0.00 | 0.00 | 0.00 | 88 | 1022.0 |
| 20260901204503 | 66 | 100 | 6.0 | 0.0 | 0.00 | 0.00 | 0.00 | 88 | 1022.0 |
| 20260901203004 | 68 | 80 | 5.0 | 0.0 | 0.00 | 0.00 | 0.00 | 82 | 1022.0 |
| 20260901200004 | 68 | 90 | 7.0 | 0.0 | 0.00 | 0.00 | 0.00 | 82 | 1022.0 |
| 20260901193003 | 68 | 90 | 7.0 | 0.0 | 0.00 | 0.00 | 0.00 | 82 | 1022.0 |
| 20260901191502 | 68 | 90 | 7.0 | 0.0 | 0.00 | 0.00 | 0.00 | 82 | 1022.0 |
| 20260901190004 | 70 | 100 | 9.0 | 0.0 | 0.00 | 0.00 | 0.00 | 77 | 1022.0 |
| 20260901184502 | 70 | 100 | 9.0 | 0.0 | 0.00 | 0.00 | 0.00 | 77 | 1022.0 |
| 20260901181503 | 72 | 90 | 1.0 | 0.0 | 0.00 | 0.00 | 0.00 | 73 | 1022.0 |
| 20260901161503 | 73 | 60 | 1.0 | 0.0 | 0.00 | 0.00 | 0.00 | 68 | 1021.0 |
| 20260901160003 | 73 | 60 | 9.0 | 0.0 | 0.00 | 0.00 | 0.00 | 68 | 1020.0 |
| 20260901154503 | 73 | 60 | 9.0 | 0.0 | 0.00 | 0.00 | 0.00 | 68 | 1020.0 |
| 20260901143003 | 75 | 60 | 1.0 | 0.0 | 0.00 | 0.00 | 0.00 | 64 | 1021.0 |
| 20260901133004 | 72 | 60 | 1.0 | 0.0 | 0.00 | 0.00 | 0.00 | 73 | 1021.0 |
| 20260901130003 | 73 | 80 | 8.0 | 0.0 | 0.00 | 0.00 | 0.00 | 68 | 1022.0 |
| 20260901123004 | 72 | 70 | 8.0 | 0.0 | 0.00 | 0.00 | 0.00 | 68 | 1022.0 |
| 20260901121503 | 72 | 70 | 8.0 | 0.0 | 0.00 | 0.00 | 0.00 | 68 | 1022.0 |
| 20260901110004 | 72 | 100 | 6.0 | 0.0 | 0.00 | 0.00 | 0.00 | 68 | 1022.0 |
| 20260901104504 | 72 | 100 | 6.0 | 0.0 | 0.00 | 0.00 | 0.00 | 68 | 1022.0 |
| 20260901103004 | 70 | 70 | 5.0 | 0.0 | 0.00 | 0.00 | 0.00 | 64 | 1022.0 |
| 20260901100004 | 72 | 100 | 3.0 | 0.0 | 0.00 | 0.00 | 0.00 | 64 | 1022.0 |
| 20260901093003 | 70 | 100 | 3.0 | 0.0 | 0.00 | 0.00 | 0.00 | 68 | 1022.0 |
| 20260901090004 | 68 | 150 | 5.0 | 0.0 | 0.00 | 0.00 | 0.00 | 77 | 1021.0 |
| 20260901084504 | 68 | 150 | 5.0 | 0.0 | 0.00 | 0.00 | 0.00 | 77 | 1021.0 |
| 20260901081503 | 64 | 160 | 3.0 | 0.0 | 0.00 | 0.00 | 0.00 | 88 | 1021.0 |
| 20260901073003 | 64 | 0 | 2.0 | 0.0 | 0.00 | 0.00 | 0.00 | 88 | 1021.0 |
| 20260901071503 | 64 | 0 | 2.0 | 0.0 | 0.00 | 0.00 | 0.00 | 88 | 1021.0 |
| 20260901060003 | 63 | 0 | 2.0 | 0.0 | 0.00 | 0.00 | 0.00 | 93 | 1021.0 |
| 20260901054502 | 63 | 0 | 2.0 | 0.0 | 0.00 | 0.00 | 0.00 | 93 | 1021.0 |
| 20260901053003 | 64 | 0 | 2.0 | 0.0 | 0.00 | 0.00 | 0.00 | 88 | 1021.0 |
| 20260901051503 | 64 | 0 | 2.0 | 0.0 | 0.00 | 0.00 | 0.00 | 88 | 1021.0 |